sensor_id;sensor_type;location;lat;lon;timestamp;P1;durP1;ratioP1;P2;durP2;ratioP2
44842;SDS011;31884;52.538;13.820;2023-04-01T00:00:21;2.67;;;1.70;;
44842;SDS011;31884;52.538;13.820;2023-04-01T00:02:47;2.22;;;1.35;;
44842;SDS011;31884;52.538;13.820;2023-04-01T00:05:12;2.50;;;1.40;;
44842;SDS011;31884;52.538;13.820;2023-04-01T00:07:38;1.38;;;1.25;;
44842;SDS011;31884;52.538;13.820;2023-04-01T00:10:09;2.35;;;1.85;;
44842;SDS011;31884;52.538;13.820;2023-04-01T00:12:36;2.65;;;1.73;;
44842;SDS011;31884;52.538;13.820;2023-04-01T00:15:03;2.75;;;1.85;;
44842;SDS011;31884;52.538;13.820;2023-04-01T00:17:30;5.72;;;2.00;;
44842;SDS011;31884;52.538;13.820;2023-04-01T00:19:55;1.90;;;1.45;;
44842;SDS011;31884;52.538;13.820;2023-04-01T00:22:22;2.60;;;1.55;;
44842;SDS011;31884;52.538;13.820;2023-04-01T00:24:48;2.47;;;1.98;;
44842;SDS011;31884;52.538;13.820;2023-04-01T00:27:14;4.13;;;1.52;;
44842;SDS011;31884;52.538;13.820;2023-04-01T00:29:47;2.97;;;1.70;;
44842;SDS011;31884;52.538;13.820;2023-04-01T00:32:13;2.25;;;1.70;;
44842;SDS011;31884;52.538;13.820;2023-04-01T00:34:39;2.38;;;2.08;;
44842;SDS011;31884;52.538;13.820;2023-04-01T00:37:05;5.55;;;2.13;;
44842;SDS011;31884;52.538;13.820;2023-04-01T00:39:32;3.58;;;2.08;;
44842;SDS011;31884;52.538;13.820;2023-04-01T00:41:58;2.85;;;1.60;;
44842;SDS011;31884;52.538;13.820;2023-04-01T00:44:26;3.28;;;2.00;;
44842;SDS011;31884;52.538;13.820;2023-04-01T00:46:53;3.28;;;2.42;;
44842;SDS011;31884;52.538;13.820;2023-04-01T00:49:20;2.72;;;1.80;;
44842;SDS011;31884;52.538;13.820;2023-04-01T00:51:50;3.85;;;2.50;;
44842;SDS011;31884;52.538;13.820;2023-04-01T00:54:19;4.18;;;2.47;;
44842;SDS011;31884;52.538;13.820;2023-04-01T00:56:50;4.68;;;2.40;;
44842;SDS011;31884;52.538;13.820;2023-04-01T00:59:34;3.80;;;2.50;;
44842;SDS011;31884;52.538;13.820;2023-04-01T01:02:04;5.43;;;2.70;;
44842;SDS011;31884;52.538;13.820;2023-04-01T01:04:32;3.65;;;2.60;;
44842;SDS011;31884;52.538;13.820;2023-04-01T01:12:13;3.15;;;2.10;;
44842;SDS011;31884;52.538;13.820;2023-04-01T01:14:45;4.32;;;2.33;;
44842;SDS011;31884;52.538;13.820;2023-04-01T01:17:32;3.17;;;1.95;;
44842;SDS011;31884;52.538;13.820;2023-04-01T01:20:19;4.60;;;2.65;;
44842;SDS011;31884;52.538;13.820;2023-04-01T01:23:10;3.78;;;2.40;;
44842;SDS011;31884;52.538;13.820;2023-04-01T01:25:49;4.68;;;2.83;;
44842;SDS011;31884;52.538;13.820;2023-04-01T01:28:44;3.72;;;2.80;;
44842;SDS011;31884;52.538;13.820;2023-04-01T01:36:26;5.88;;;3.30;;
44842;SDS011;31884;52.538;13.820;2023-04-01T01:38:59;4.13;;;2.70;;
44842;SDS011;31884;52.538;13.820;2023-04-01T01:41:27;4.95;;;2.80;;
44842;SDS011;31884;52.538;13.820;2023-04-01T01:43:53;4.35;;;3.08;;
44842;SDS011;31884;52.538;13.820;2023-04-01T01:46:22;4.78;;;2.95;;
44842;SDS011;31884;52.538;13.820;2023-04-01T01:48:50;7.20;;;2.75;;
44842;SDS011;31884;52.538;13.820;2023-04-01T01:51:17;3.88;;;2.67;;
44842;SDS011;31884;52.538;13.820;2023-04-01T01:53:44;4.22;;;2.65;;
44842;SDS011;31884;52.538;13.820;2023-04-01T01:56:10;4.20;;;3.22;;
44842;SDS011;31884;52.538;13.820;2023-04-01T01:58:44;3.90;;;3.03;;
44842;SDS011;31884;52.538;13.820;2023-04-01T02:01:13;3.30;;;2.28;;
44842;SDS011;31884;52.538;13.820;2023-04-01T02:03:42;3.88;;;2.92;;
44842;SDS011;31884;52.538;13.820;2023-04-01T02:06:10;4.72;;;3.10;;
44842;SDS011;31884;52.538;13.820;2023-04-01T02:08:41;5.40;;;3.30;;
44842;SDS011;31884;52.538;13.820;2023-04-01T02:11:12;5.10;;;2.78;;
44842;SDS011;31884;52.538;13.820;2023-04-01T02:16:34;5.22;;;3.25;;
44842;SDS011;31884;52.538;13.820;2023-04-01T02:19:06;4.13;;;2.88;;
44842;SDS011;31884;52.538;13.820;2023-04-01T02:21:34;7.40;;;3.53;;
44842;SDS011;31884;52.538;13.820;2023-04-01T02:24:02;5.30;;;3.70;;
44842;SDS011;31884;52.538;13.820;2023-04-01T02:26:30;4.63;;;3.38;;
44842;SDS011;31884;52.538;13.820;2023-04-01T02:28:56;4.68;;;3.10;;
44842;SDS011;31884;52.538;13.820;2023-04-01T02:31:24;6.32;;;3.40;;
44842;SDS011;31884;52.538;13.820;2023-04-01T02:33:50;5.18;;;3.20;;
44842;SDS011;31884;52.538;13.820;2023-04-01T02:36:16;4.30;;;3.20;;
44842;SDS011;31884;52.538;13.820;2023-04-01T02:38:43;5.95;;;3.70;;
44842;SDS011;31884;52.538;13.820;2023-04-01T02:41:10;6.80;;;4.18;;
44842;SDS011;31884;52.538;13.820;2023-04-01T02:43:36;5.15;;;3.85;;
44842;SDS011;31884;52.538;13.820;2023-04-01T02:46:02;4.32;;;3.70;;
44842;SDS011;31884;52.538;13.820;2023-04-01T02:48:27;4.57;;;3.10;;
44842;SDS011;31884;52.538;13.820;2023-04-01T02:50:53;6.13;;;4.10;;
44842;SDS011;31884;52.538;13.820;2023-04-01T02:53:19;4.15;;;3.40;;
44842;SDS011;31884;52.538;13.820;2023-04-01T02:55:44;5.63;;;3.95;;
44842;SDS011;31884;52.538;13.820;2023-04-01T02:58:10;7.35;;;4.00;;
44842;SDS011;31884;52.538;13.820;2023-04-01T03:00:36;8.27;;;4.85;;
44842;SDS011;31884;52.538;13.820;2023-04-01T03:03:02;6.55;;;3.67;;
44842;SDS011;31884;52.538;13.820;2023-04-01T03:05:27;5.35;;;3.83;;
44842;SDS011;31884;52.538;13.820;2023-04-01T03:07:53;9.48;;;4.47;;
44842;SDS011;31884;52.538;13.820;2023-04-01T03:10:19;5.30;;;3.63;;
44842;SDS011;31884;52.538;13.820;2023-04-01T03:12:44;6.75;;;4.40;;
44842;SDS011;31884;52.538;13.820;2023-04-01T03:15:10;4.90;;;3.42;;
44842;SDS011;31884;52.538;13.820;2023-04-01T03:17:37;6.72;;;4.10;;
44842;SDS011;31884;52.538;13.820;2023-04-01T03:20:03;6.72;;;4.55;;
44842;SDS011;31884;52.538;13.820;2023-04-01T03:22:29;6.95;;;4.45;;
44842;SDS011;31884;52.538;13.820;2023-04-01T03:24:55;5.32;;;3.42;;
44842;SDS011;31884;52.538;13.820;2023-04-01T03:27:21;6.60;;;4.30;;
44842;SDS011;31884;52.538;13.820;2023-04-01T03:29:46;6.18;;;3.67;;
44842;SDS011;31884;52.538;13.820;2023-04-01T03:32:12;6.65;;;4.25;;
44842;SDS011;31884;52.538;13.820;2023-04-01T03:34:37;6.80;;;5.07;;
44842;SDS011;31884;52.538;13.820;2023-04-01T03:37:03;6.35;;;4.15;;
44842;SDS011;31884;52.538;13.820;2023-04-01T03:39:28;7.03;;;4.68;;
44842;SDS011;31884;52.538;13.820;2023-04-01T03:41:55;8.05;;;4.38;;
44842;SDS011;31884;52.538;13.820;2023-04-01T03:44:21;9.30;;;4.57;;
44842;SDS011;31884;52.538;13.820;2023-04-01T03:46:46;5.80;;;3.78;;
44842;SDS011;31884;52.538;13.820;2023-04-01T03:49:12;6.70;;;4.28;;
44842;SDS011;31884;52.538;13.820;2023-04-01T03:51:38;6.18;;;4.50;;
44842;SDS011;31884;52.538;13.820;2023-04-01T03:54:05;7.40;;;4.70;;
44842;SDS011;31884;52.538;13.820;2023-04-01T03:56:30;5.88;;;4.32;;
44842;SDS011;31884;52.538;13.820;2023-04-01T03:58:56;6.07;;;4.25;;
44842;SDS011;31884;52.538;13.820;2023-04-01T04:01:22;6.90;;;4.20;;
44842;SDS011;31884;52.538;13.820;2023-04-01T04:03:48;6.65;;;4.28;;
44842;SDS011;31884;52.538;13.820;2023-04-01T04:06:14;6.75;;;4.63;;
44842;SDS011;31884;52.538;13.820;2023-04-01T04:08:41;8.27;;;4.93;;
44842;SDS011;31884;52.538;13.820;2023-04-01T04:11:07;10.13;;;5.97;;
44842;SDS011;31884;52.538;13.820;2023-04-01T04:13:32;8.75;;;4.68;;
44842;SDS011;31884;52.538;13.820;2023-04-01T04:15:58;7.65;;;4.88;;
44842;SDS011;31884;52.538;13.820;2023-04-01T04:18:24;8.45;;;5.28;;
44842;SDS011;31884;52.538;13.820;2023-04-01T04:20:49;9.95;;;5.13;;
44842;SDS011;31884;52.538;13.820;2023-04-01T04:23:16;8.38;;;5.07;;
44842;SDS011;31884;52.538;13.820;2023-04-01T04:25:52;7.93;;;5.53;;
44842;SDS011;31884;52.538;13.820;2023-04-01T04:28:30;10.13;;;5.35;;
44842;SDS011;31884;52.538;13.820;2023-04-01T04:30:56;7.25;;;5.35;;
44842;SDS011;31884;52.538;13.820;2023-04-01T04:33:22;7.07;;;4.80;;
44842;SDS011;31884;52.538;13.820;2023-04-01T04:35:48;6.38;;;4.75;;
44842;SDS011;31884;52.538;13.820;2023-04-01T04:38:14;10.20;;;5.20;;
44842;SDS011;31884;52.538;13.820;2023-04-01T04:40:40;6.93;;;4.70;;
44842;SDS011;31884;52.538;13.820;2023-04-01T04:43:06;8.13;;;5.55;;
44842;SDS011;31884;52.538;13.820;2023-04-01T04:45:34;7.53;;;4.97;;
44842;SDS011;31884;52.538;13.820;2023-04-01T04:48:00;6.68;;;5.10;;
44842;SDS011;31884;52.538;13.820;2023-04-01T04:50:25;8.25;;;5.13;;
44842;SDS011;31884;52.538;13.820;2023-04-01T04:52:51;8.02;;;5.63;;
44842;SDS011;31884;52.538;13.820;2023-04-01T04:55:17;10.43;;;6.00;;
44842;SDS011;31884;52.538;13.820;2023-04-01T04:57:42;7.72;;;5.47;;
44842;SDS011;31884;52.538;13.820;2023-04-01T05:00:08;8.27;;;5.72;;
44842;SDS011;31884;52.538;13.820;2023-04-01T05:02:37;8.10;;;5.30;;
44842;SDS011;31884;52.538;13.820;2023-04-01T05:05:02;8.32;;;5.75;;
44842;SDS011;31884;52.538;13.820;2023-04-01T05:07:29;9.30;;;5.72;;
44842;SDS011;31884;52.538;13.820;2023-04-01T05:09:54;5.32;;;4.18;;
44842;SDS011;31884;52.538;13.820;2023-04-01T05:12:20;10.07;;;6.55;;
44842;SDS011;31884;52.538;13.820;2023-04-01T05:14:45;9.77;;;6.22;;
44842;SDS011;31884;52.538;13.820;2023-04-01T05:17:11;7.28;;;5.90;;
44842;SDS011;31884;52.538;13.820;2023-04-01T05:19:37;9.55;;;6.28;;
44842;SDS011;31884;52.538;13.820;2023-04-01T05:22:03;10.88;;;7.35;;
44842;SDS011;31884;52.538;13.820;2023-04-01T05:24:29;9.27;;;5.65;;
44842;SDS011;31884;52.538;13.820;2023-04-01T05:26:55;9.10;;;5.82;;
44842;SDS011;31884;52.538;13.820;2023-04-01T05:29:22;10.32;;;6.47;;
44842;SDS011;31884;52.538;13.820;2023-04-01T05:31:48;9.25;;;6.15;;
44842;SDS011;31884;52.538;13.820;2023-04-01T05:34:13;10.65;;;6.55;;
44842;SDS011;31884;52.538;13.820;2023-04-01T05:36:39;9.82;;;6.22;;
44842;SDS011;31884;52.538;13.820;2023-04-01T05:39:04;10.25;;;5.40;;
44842;SDS011;31884;52.538;13.820;2023-04-01T05:41:30;10.27;;;6.22;;
44842;SDS011;31884;52.538;13.820;2023-04-01T05:43:56;8.13;;;5.70;;
44842;SDS011;31884;52.538;13.820;2023-04-01T05:46:21;9.07;;;6.00;;
44842;SDS011;31884;52.538;13.820;2023-04-01T05:48:47;10.35;;;6.63;;
44842;SDS011;31884;52.538;13.820;2023-04-01T05:51:13;8.93;;;5.20;;
44842;SDS011;31884;52.538;13.820;2023-04-01T05:53:40;11.10;;;6.50;;
44842;SDS011;31884;52.538;13.820;2023-04-01T05:56:05;9.95;;;6.00;;
44842;SDS011;31884;52.538;13.820;2023-04-01T05:58:33;7.30;;;5.13;;
44842;SDS011;31884;52.538;13.820;2023-04-01T06:01:07;6.55;;;5.05;;
44842;SDS011;31884;52.538;13.820;2023-04-01T06:06:00;5.60;;;3.23;;
44842;SDS011;31884;52.538;13.820;2023-04-01T06:08:26;7.15;;;4.85;;
44842;SDS011;31884;52.538;13.820;2023-04-01T06:10:58;5.63;;;4.13;;
44842;SDS011;31884;52.538;13.820;2023-04-01T06:16:21;7.38;;;4.20;;
44842;SDS011;31884;52.538;13.820;2023-04-01T06:24:57;5.55;;;3.72;;
44842;SDS011;31884;52.538;13.820;2023-04-01T06:31:00;5.97;;;3.42;;
44842;SDS011;31884;52.538;13.820;2023-04-01T06:36:39;5.32;;;3.28;;
44842;SDS011;31884;52.538;13.820;2023-04-01T06:39:16;6.70;;;3.25;;
44842;SDS011;31884;52.538;13.820;2023-04-01T06:44:46;4.93;;;3.25;;
44842;SDS011;31884;52.538;13.820;2023-04-01T06:50:19;5.32;;;3.38;;
44842;SDS011;31884;52.538;13.820;2023-04-01T06:53:09;6.57;;;3.78;;
44842;SDS011;31884;52.538;13.820;2023-04-01T06:56:00;5.85;;;3.53;;
44842;SDS011;31884;52.538;13.820;2023-04-01T07:01:18;5.95;;;3.63;;
44842;SDS011;31884;52.538;13.820;2023-04-01T07:03:58;6.30;;;3.17;;
44842;SDS011;31884;52.538;13.820;2023-04-01T07:06:31;5.75;;;3.47;;
44842;SDS011;31884;52.538;13.820;2023-04-01T07:09:03;9.70;;;4.60;;
44842;SDS011;31884;52.538;13.820;2023-04-01T07:11:34;4.55;;;3.28;;
44842;SDS011;31884;52.538;13.820;2023-04-01T07:14:04;5.32;;;3.28;;
44842;SDS011;31884;52.538;13.820;2023-04-01T07:17:24;3.40;;;2.60;;
44842;SDS011;31884;52.538;13.820;2023-04-01T07:19:58;5.38;;;3.00;;
44842;SDS011;31884;52.538;13.820;2023-04-01T07:22:54;6.05;;;3.75;;
44842;SDS011;31884;52.538;13.820;2023-04-01T07:25:30;5.00;;;3.00;;
44842;SDS011;31884;52.538;13.820;2023-04-01T07:28:15;6.45;;;2.95;;
44842;SDS011;31884;52.538;13.820;2023-04-01T07:33:28;4.07;;;2.80;;
44842;SDS011;31884;52.538;13.820;2023-04-01T07:42:01;7.25;;;4.30;;
44842;SDS011;31884;52.538;13.820;2023-04-01T07:44:38;6.70;;;4.63;;
44842;SDS011;31884;52.538;13.820;2023-04-01T07:50:28;6.82;;;4.88;;
44842;SDS011;31884;52.538;13.820;2023-04-01T07:53:08;10.50;;;6.72;;
44842;SDS011;31884;52.538;13.820;2023-04-01T07:55:45;12.13;;;6.70;;
44842;SDS011;31884;52.538;13.820;2023-04-01T07:58:32;9.75;;;6.70;;
44842;SDS011;31884;52.538;13.820;2023-04-01T08:03:59;7.50;;;4.82;;
44842;SDS011;31884;52.538;13.820;2023-04-01T08:06:51;6.38;;;4.60;;
44842;SDS011;31884;52.538;13.820;2023-04-01T08:09:43;6.60;;;4.35;;
44842;SDS011;31884;52.538;13.820;2023-04-01T08:17:57;5.43;;;3.97;;
44842;SDS011;31884;52.538;13.820;2023-04-01T08:23:22;5.55;;;4.13;;
44842;SDS011;31884;52.538;13.820;2023-04-01T08:26:00;6.68;;;4.88;;
44842;SDS011;31884;52.538;13.820;2023-04-01T08:31:04;7.35;;;5.65;;
44842;SDS011;31884;52.538;13.820;2023-04-01T08:33:33;7.28;;;5.40;;
44842;SDS011;31884;52.538;13.820;2023-04-01T08:36:16;6.72;;;5.28;;
44842;SDS011;31884;52.538;13.820;2023-04-01T08:38:57;6.03;;;4.97;;
44842;SDS011;31884;52.538;13.820;2023-04-01T08:50:33;8.18;;;5.97;;
44842;SDS011;31884;52.538;13.820;2023-04-01T08:55:48;6.55;;;4.72;;
44842;SDS011;31884;52.538;13.820;2023-04-01T09:01:21;5.57;;;4.60;;
44842;SDS011;31884;52.538;13.820;2023-04-01T09:09:30;5.22;;;4.47;;
44842;SDS011;31884;52.538;13.820;2023-04-01T09:31:38;6.70;;;4.53;;
44842;SDS011;31884;52.538;13.820;2023-04-01T09:37:10;5.82;;;4.88;;
44842;SDS011;31884;52.538;13.820;2023-04-01T09:39:51;4.15;;;3.75;;
44842;SDS011;31884;52.538;13.820;2023-04-01T09:45:35;4.72;;;4.18;;
44842;SDS011;31884;52.538;13.820;2023-04-01T09:48:12;6.35;;;5.00;;
44842;SDS011;31884;52.538;13.820;2023-04-01T10:00:35;4.35;;;3.88;;
44842;SDS011;31884;52.538;13.820;2023-04-01T10:14:16;5.35;;;3.78;;
44842;SDS011;31884;52.538;13.820;2023-04-01T10:28:22;3.88;;;2.75;;
44842;SDS011;31884;52.538;13.820;2023-04-01T10:31:02;3.05;;;2.47;;
44842;SDS011;31884;52.538;13.820;2023-04-01T10:36:28;2.85;;;2.22;;
44842;SDS011;31884;52.538;13.820;2023-04-01T10:45:21;2.33;;;1.90;;
44842;SDS011;31884;52.538;13.820;2023-04-01T10:56:29;2.47;;;2.28;;
44842;SDS011;31884;52.538;13.820;2023-04-01T11:02:10;3.22;;;2.55;;
44842;SDS011;31884;52.538;13.820;2023-04-01T11:11:09;3.67;;;2.88;;
44842;SDS011;31884;52.538;13.820;2023-04-01T11:14:04;2.85;;;2.30;;
44842;SDS011;31884;52.538;13.820;2023-04-01T11:42:53;3.17;;;2.20;;
44842;SDS011;31884;52.538;13.820;2023-04-01T11:45:33;5.25;;;2.90;;
44842;SDS011;31884;52.538;13.820;2023-04-01T11:59:13;3.88;;;2.67;;
44842;SDS011;31884;52.538;13.820;2023-04-01T12:04:38;3.50;;;2.70;;
44842;SDS011;31884;52.538;13.820;2023-04-01T12:07:41;4.30;;;2.50;;
44842;SDS011;31884;52.538;13.820;2023-04-01T12:10:19;4.32;;;3.13;;
44842;SDS011;31884;52.538;13.820;2023-04-01T12:12:59;4.05;;;3.10;;
44842;SDS011;31884;52.538;13.820;2023-04-01T12:16:13;4.85;;;3.10;;
44842;SDS011;31884;52.538;13.820;2023-04-01T12:19:15;4.80;;;2.63;;
44842;SDS011;31884;52.538;13.820;2023-04-01T12:22:09;2.97;;;2.67;;
44842;SDS011;31884;52.538;13.820;2023-04-01T12:30:42;3.28;;;2.78;;
44842;SDS011;31884;52.538;13.820;2023-04-01T12:33:36;3.13;;;2.67;;
44842;SDS011;31884;52.538;13.820;2023-04-01T12:36:31;4.82;;;3.15;;
44842;SDS011;31884;52.538;13.820;2023-04-01T12:39:27;5.10;;;3.13;;
44842;SDS011;31884;52.538;13.820;2023-04-01T12:50:18;7.15;;;3.53;;
44842;SDS011;31884;52.538;13.820;2023-04-01T12:55:35;3.58;;;2.58;;
44842;SDS011;31884;52.538;13.820;2023-04-01T13:07:10;4.00;;;2.63;;
44842;SDS011;31884;52.538;13.820;2023-04-01T13:12:30;2.72;;;1.98;;
44842;SDS011;31884;52.538;13.820;2023-04-01T13:18:11;4.10;;;1.75;;
44842;SDS011;31884;52.538;13.820;2023-04-01T13:23:43;2.78;;;1.90;;
44842;SDS011;31884;52.538;13.820;2023-04-01T13:29:26;3.35;;;1.50;;
44842;SDS011;31884;52.538;13.820;2023-04-01T13:32:13;3.50;;;1.60;;
44842;SDS011;31884;52.538;13.820;2023-04-01T13:34:53;2.97;;;1.60;;
44842;SDS011;31884;52.538;13.820;2023-04-01T13:42:56;1.60;;;1.48;;
44842;SDS011;31884;52.538;13.820;2023-04-01T13:49:26;2.20;;;1.42;;
44842;SDS011;31884;52.538;13.820;2023-04-01T13:51:46;2.13;;;1.55;;
44842;SDS011;31884;52.538;13.820;2023-04-01T14:08:04;1.98;;;1.40;;
44842;SDS011;31884;52.538;13.820;2023-04-01T14:16:50;1.80;;;1.67;;
44842;SDS011;31884;52.538;13.820;2023-04-01T14:19:40;1.73;;;1.48;;
44842;SDS011;31884;52.538;13.820;2023-04-01T14:37:01;4.53;;;1.83;;
44842;SDS011;31884;52.538;13.820;2023-04-01T14:50:42;4.95;;;2.53;;
44842;SDS011;31884;52.538;13.820;2023-04-01T14:53:25;3.13;;;2.20;;
44842;SDS011;31884;52.538;13.820;2023-04-01T14:55:57;3.50;;;2.20;;
44842;SDS011;31884;52.538;13.820;2023-04-01T14:58:40;4.28;;;2.80;;
44842;SDS011;31884;52.538;13.820;2023-04-01T15:03:48;3.90;;;2.53;;
44842;SDS011;31884;52.538;13.820;2023-04-01T15:06:33;2.92;;;2.10;;
44842;SDS011;31884;52.538;13.820;2023-04-01T15:11:54;3.60;;;2.10;;
44842;SDS011;31884;52.538;13.820;2023-04-01T15:17:15;3.78;;;2.13;;
44842;SDS011;31884;52.538;13.820;2023-04-01T15:20:10;6.00;;;2.28;;
44842;SDS011;31884;52.538;13.820;2023-04-01T15:25:43;2.95;;;2.00;;
44842;SDS011;31884;52.538;13.820;2023-04-01T15:31:31;3.88;;;2.38;;
44842;SDS011;31884;52.538;13.820;2023-04-01T15:39:41;2.20;;;1.67;;
44842;SDS011;31884;52.538;13.820;2023-04-01T15:45:00;6.25;;;4.03;;
44842;SDS011;31884;52.538;13.820;2023-04-01T15:47:33;4.40;;;2.88;;
44842;SDS011;31884;52.538;13.820;2023-04-01T15:53:03;6.03;;;3.60;;
44842;SDS011;31884;52.538;13.820;2023-04-01T15:55:39;4.95;;;2.80;;
44842;SDS011;31884;52.538;13.820;2023-04-01T15:58:29;3.92;;;2.95;;
44842;SDS011;31884;52.538;13.820;2023-04-01T16:01:17;4.20;;;2.92;;
44842;SDS011;31884;52.538;13.820;2023-04-01T16:07:10;3.70;;;2.83;;
44842;SDS011;31884;52.538;13.820;2023-04-01T16:09:49;3.33;;;2.53;;
44842;SDS011;31884;52.538;13.820;2023-04-01T16:12:44;4.65;;;2.60;;
44842;SDS011;31884;52.538;13.820;2023-04-01T16:18:21;5.35;;;3.33;;
44842;SDS011;31884;52.538;13.820;2023-04-01T16:23:50;6.78;;;3.78;;
44842;SDS011;31884;52.538;13.820;2023-04-01T16:26:33;5.22;;;3.08;;
44842;SDS011;31884;52.538;13.820;2023-04-01T16:34:44;6.30;;;3.95;;
44842;SDS011;31884;52.538;13.820;2023-04-01T16:37:46;6.35;;;4.13;;
44842;SDS011;31884;52.538;13.820;2023-04-01T16:40:42;4.18;;;3.42;;
44842;SDS011;31884;52.538;13.820;2023-04-01T16:43:35;7.95;;;4.93;;
44842;SDS011;31884;52.538;13.820;2023-04-01T16:46:20;8.13;;;4.28;;
44842;SDS011;31884;52.538;13.820;2023-04-01T16:51:53;5.57;;;4.40;;
44842;SDS011;31884;52.538;13.820;2023-04-01T16:57:02;7.15;;;4.80;;
44842;SDS011;31884;52.538;13.820;2023-04-01T16:59:44;5.30;;;3.67;;
44842;SDS011;31884;52.538;13.820;2023-04-01T17:02:20;4.68;;;3.83;;
44842;SDS011;31884;52.538;13.820;2023-04-01T17:05:04;7.35;;;4.30;;
44842;SDS011;31884;52.538;13.820;2023-04-01T17:10:18;4.65;;;3.40;;
44842;SDS011;31884;52.538;13.820;2023-04-01T17:18:23;8.15;;;4.00;;
44842;SDS011;31884;52.538;13.820;2023-04-01T17:21:04;4.93;;;3.40;;
44842;SDS011;31884;52.538;13.820;2023-04-01T17:23:51;4.68;;;3.40;;
44842;SDS011;31884;52.538;13.820;2023-04-01T17:31:53;6.45;;;3.55;;
44842;SDS011;31884;52.538;13.820;2023-04-01T17:34:42;7.65;;;4.07;;
44842;SDS011;31884;52.538;13.820;2023-04-01T17:37:28;5.53;;;4.20;;
44842;SDS011;31884;52.538;13.820;2023-04-01T17:53:55;5.57;;;3.85;;
44842;SDS011;31884;52.538;13.820;2023-04-01T18:07:40;7.93;;;4.45;;
44842;SDS011;31884;52.538;13.820;2023-04-01T18:10:28;6.72;;;3.78;;
44842;SDS011;31884;52.538;13.820;2023-04-01T18:13:09;7.25;;;4.28;;
44842;SDS011;31884;52.538;13.820;2023-04-01T18:16:06;9.75;;;4.30;;
44842;SDS011;31884;52.538;13.820;2023-04-01T18:18:50;8.15;;;4.50;;
44842;SDS011;31884;52.538;13.820;2023-04-01T18:27:01;7.53;;;5.22;;
44842;SDS011;31884;52.538;13.820;2023-04-01T18:29:32;7.90;;;5.18;;
44842;SDS011;31884;52.538;13.820;2023-04-01T18:34:57;11.43;;;5.72;;
44842;SDS011;31884;52.538;13.820;2023-04-01T18:37:54;6.32;;;4.90;;
44842;SDS011;31884;52.538;13.820;2023-04-01T18:40:36;10.88;;;6.55;;
44842;SDS011;31884;52.538;13.820;2023-04-01T18:43:27;8.38;;;5.70;;
44842;SDS011;31884;52.538;13.820;2023-04-01T18:46:07;10.05;;;5.03;;
44842;SDS011;31884;52.538;13.820;2023-04-01T18:48:54;8.63;;;5.68;;
44842;SDS011;31884;52.538;13.820;2023-04-01T18:51:36;7.32;;;5.32;;
44842;SDS011;31884;52.538;13.820;2023-04-01T18:57:25;7.45;;;5.00;;
44842;SDS011;31884;52.538;13.820;2023-04-01T19:00:26;7.90;;;4.68;;
44842;SDS011;31884;52.538;13.820;2023-04-01T19:03:16;11.82;;;6.15;;
44842;SDS011;31884;52.538;13.820;2023-04-01T19:05:48;11.60;;;6.30;;
44842;SDS011;31884;52.538;13.820;2023-04-01T19:08:25;12.40;;;6.57;;
44842;SDS011;31884;52.538;13.820;2023-04-01T19:27:36;12.07;;;7.57;;
44842;SDS011;31884;52.538;13.820;2023-04-01T19:36:23;15.30;;;7.43;;
44842;SDS011;31884;52.538;13.820;2023-04-01T19:38:38;16.35;;;8.68;;
44842;SDS011;31884;52.538;13.820;2023-04-01T19:41:19;18.67;;;9.43;;
44842;SDS011;31884;52.538;13.820;2023-04-01T19:43:59;20.45;;;9.73;;
44842;SDS011;31884;52.538;13.820;2023-04-01T19:46:44;19.95;;;8.82;;
44842;SDS011;31884;52.538;13.820;2023-04-01T19:52:14;14.13;;;8.52;;
44842;SDS011;31884;52.538;13.820;2023-04-01T19:55:04;18.10;;;9.00;;
44842;SDS011;31884;52.538;13.820;2023-04-01T19:58:52;13.75;;;9.23;;
44842;SDS011;31884;52.538;13.820;2023-04-01T20:01:04;20.50;;;8.75;;
44842;SDS011;31884;52.538;13.820;2023-04-01T20:03:41;19.27;;;8.80;;
44842;SDS011;31884;52.538;13.820;2023-04-01T20:09:39;18.02;;;9.07;;
44842;SDS011;31884;52.538;13.820;2023-04-01T20:14:59;16.13;;;8.57;;
44842;SDS011;31884;52.538;13.820;2023-04-01T20:17:44;20.23;;;9.50;;
44842;SDS011;31884;52.538;13.820;2023-04-01T20:25:16;18.25;;;9.32;;
44842;SDS011;31884;52.538;13.820;2023-04-01T20:27:53;12.13;;;7.63;;
44842;SDS011;31884;52.538;13.820;2023-04-01T20:33:21;12.85;;;8.00;;
44842;SDS011;31884;52.538;13.820;2023-04-01T20:38:49;13.40;;;8.30;;
44842;SDS011;31884;52.538;13.820;2023-04-01T20:52:49;19.08;;;8.43;;
44842;SDS011;31884;52.538;13.820;2023-04-01T20:55:28;15.32;;;8.50;;
44842;SDS011;31884;52.538;13.820;2023-04-01T21:03:49;13.27;;;7.60;;
44842;SDS011;31884;52.538;13.820;2023-04-01T21:15:27;17.52;;;8.27;;
44842;SDS011;31884;52.538;13.820;2023-04-01T21:21:15;19.08;;;8.77;;
44842;SDS011;31884;52.538;13.820;2023-04-01T21:31:59;14.18;;;7.32;;
44842;SDS011;31884;52.538;13.820;2023-04-01T21:34:59;13.95;;;7.10;;
44842;SDS011;31884;52.538;13.820;2023-04-01T21:42:50;9.80;;;5.65;;
44842;SDS011;31884;52.538;13.820;2023-04-01T21:45:56;14.27;;;6.05;;
44842;SDS011;31884;52.538;13.820;2023-04-01T21:48:34;10.43;;;5.45;;
44842;SDS011;31884;52.538;13.820;2023-04-01T21:51:38;10.32;;;5.00;;
44842;SDS011;31884;52.538;13.820;2023-04-01T22:00:17;9.13;;;4.63;;
44842;SDS011;31884;52.538;13.820;2023-04-01T22:05:47;8.25;;;4.40;;
44842;SDS011;31884;52.538;13.820;2023-04-01T22:08:28;7.30;;;4.13;;
44842;SDS011;31884;52.538;13.820;2023-04-01T22:13:36;10.40;;;4.38;;
44842;SDS011;31884;52.538;13.820;2023-04-01T22:18:55;8.77;;;4.47;;
44842;SDS011;31884;52.538;13.820;2023-04-01T22:24:23;7.50;;;4.20;;
44842;SDS011;31884;52.538;13.820;2023-04-01T22:32:15;6.85;;;4.35;;
44842;SDS011;31884;52.538;13.820;2023-04-01T22:35:06;13.15;;;4.68;;
44842;SDS011;31884;52.538;13.820;2023-04-01T22:43:25;8.32;;;4.40;;
44842;SDS011;31884;52.538;13.820;2023-04-01T22:48:46;8.50;;;4.90;;
44842;SDS011;31884;52.538;13.820;2023-04-01T22:54:19;9.05;;;4.80;;
44842;SDS011;31884;52.538;13.820;2023-04-01T22:57:00;8.07;;;4.25;;
44842;SDS011;31884;52.538;13.820;2023-04-01T22:59:58;10.10;;;4.88;;
44842;SDS011;31884;52.538;13.820;2023-04-01T23:02:35;9.25;;;4.50;;
44842;SDS011;31884;52.538;13.820;2023-04-01T23:05:12;12.40;;;4.90;;
44842;SDS011;31884;52.538;13.820;2023-04-01T23:07:43;12.88;;;4.68;;
44842;SDS011;31884;52.538;13.820;2023-04-01T23:10:40;12.10;;;4.95;;
44842;SDS011;31884;52.538;13.820;2023-04-01T23:13:10;10.10;;;4.28;;
44842;SDS011;31884;52.538;13.820;2023-04-01T23:21:12;7.63;;;4.00;;
44842;SDS011;31884;52.538;13.820;2023-04-01T23:24:00;9.05;;;4.60;;
44842;SDS011;31884;52.538;13.820;2023-04-01T23:26:53;8.07;;;4.13;;
44842;SDS011;31884;52.538;13.820;2023-04-01T23:29:24;8.00;;;4.30;;
44842;SDS011;31884;52.538;13.820;2023-04-01T23:31:58;11.82;;;4.72;;
44842;SDS011;31884;52.538;13.820;2023-04-01T23:34:34;6.05;;;4.10;;
44842;SDS011;31884;52.538;13.820;2023-04-01T23:37:04;5.40;;;4.00;;
44842;SDS011;31884;52.538;13.820;2023-04-01T23:39:35;8.52;;;4.53;;
44842;SDS011;31884;52.538;13.820;2023-04-01T23:44:55;7.95;;;4.13;;
44842;SDS011;31884;52.538;13.820;2023-04-01T23:47:31;7.13;;;4.00;;
44842;SDS011;31884;52.538;13.820;2023-04-01T23:50:13;10.23;;;3.87;;
44842;SDS011;31884;52.538;13.820;2023-04-01T23:52:43;9.38;;;4.30;;
44842;SDS011;31884;52.538;13.820;2023-04-01T23:55:14;8.40;;;3.58;;
44842;SDS011;31884;52.538;13.820;2023-04-01T23:58:15;15.07;;;4.88;;
